sensor_id;sensor_type;location;lat;lon;timestamp;P1;durP1;ratioP1;P2;durP2;ratioP2
50104;SDS011;47690;39.202;-77.198;2023-03-01T00:00:09;1.52;;;1.42;;
50104;SDS011;47690;39.202;-77.198;2023-03-01T00:02:47;1.70;;;1.60;;
50104;SDS011;47690;39.202;-77.198;2023-03-01T00:05:33;1.50;;;1.40;;
50104;SDS011;47690;39.202;-77.198;2023-03-01T00:08:17;2.28;;;1.60;;
50104;SDS011;47690;39.202;-77.198;2023-03-01T00:13:53;1.52;;;1.42;;
50104;SDS011;47690;39.202;-77.198;2023-03-01T00:16:41;1.70;;;1.60;;
50104;SDS011;47690;39.202;-77.198;2023-03-01T00:19:18;1.60;;;1.50;;
50104;SDS011;47690;39.202;-77.198;2023-03-01T00:22:01;1.60;;;1.50;;
50104;SDS011;47690;39.202;-77.198;2023-03-01T00:25:09;1.27;;;1.27;;
50104;SDS011;47690;39.202;-77.198;2023-03-01T00:27:46;1.80;;;1.70;;
50104;SDS011;47690;39.202;-77.198;2023-03-01T00:30:24;1.45;;;1.35;;
50104;SDS011;47690;39.202;-77.198;2023-03-01T00:33:03;1.60;;;1.50;;
50104;SDS011;47690;39.202;-77.198;2023-03-01T00:35:34;1.60;;;1.50;;
50104;SDS011;47690;39.202;-77.198;2023-03-01T00:38:11;1.40;;;1.30;;
50104;SDS011;47690;39.202;-77.198;2023-03-01T00:40:45;1.60;;;1.50;;
50104;SDS011;47690;39.202;-77.198;2023-03-01T00:43:19;1.58;;;1.48;;
50104;SDS011;47690;39.202;-77.198;2023-03-01T00:46:17;1.58;;;1.48;;
50104;SDS011;47690;39.202;-77.198;2023-03-01T00:48:52;1.58;;;1.48;;
50104;SDS011;47690;39.202;-77.198;2023-03-01T00:51:32;1.33;;;1.27;;
50104;SDS011;47690;39.202;-77.198;2023-03-01T00:54:08;1.55;;;1.45;;
50104;SDS011;47690;39.202;-77.198;2023-03-01T00:56:46;1.50;;;1.40;;
50104;SDS011;47690;39.202;-77.198;2023-03-01T00:59:20;1.30;;;1.20;;
50104;SDS011;47690;39.202;-77.198;2023-03-01T01:02:04;1.27;;;1.17;;
50104;SDS011;47690;39.202;-77.198;2023-03-01T01:04:36;1.40;;;1.40;;
50104;SDS011;47690;39.202;-77.198;2023-03-01T01:07:16;1.70;;;1.60;;
50104;SDS011;47690;39.202;-77.198;2023-03-01T01:09:49;1.73;;;1.58;;
50104;SDS011;47690;39.202;-77.198;2023-03-01T01:12:21;1.75;;;1.65;;
50104;SDS011;47690;39.202;-77.198;2023-03-01T01:15:03;1.40;;;1.30;;
50104;SDS011;47690;39.202;-77.198;2023-03-01T01:17:37;1.30;;;1.27;;
50104;SDS011;47690;39.202;-77.198;2023-03-01T01:20:12;2.03;;;1.60;;
50104;SDS011;47690;39.202;-77.198;2023-03-01T01:22:48;1.80;;;1.70;;
50104;SDS011;47690;39.202;-77.198;2023-03-01T01:25:20;1.50;;;1.40;;
50104;SDS011;47690;39.202;-77.198;2023-03-01T01:27:51;1.27;;;1.20;;
50104;SDS011;47690;39.202;-77.198;2023-03-01T01:30:29;1.27;;;1.27;;
50104;SDS011;47690;39.202;-77.198;2023-03-01T01:33:05;1.92;;;1.80;;
50104;SDS011;47690;39.202;-77.198;2023-03-01T01:35:41;1.60;;;1.50;;
50104;SDS011;47690;39.202;-77.198;2023-03-01T01:38:16;1.70;;;1.60;;
50104;SDS011;47690;39.202;-77.198;2023-03-01T01:40:53;1.48;;;1.38;;
50104;SDS011;47690;39.202;-77.198;2023-03-01T01:43:41;1.85;;;1.75;;
50104;SDS011;47690;39.202;-77.198;2023-03-01T01:46:30;1.63;;;1.52;;
50104;SDS011;47690;39.202;-77.198;2023-03-01T01:51:53;1.60;;;1.50;;
50104;SDS011;47690;39.202;-77.198;2023-03-01T01:57:52;1.70;;;1.60;;
50104;SDS011;47690;39.202;-77.198;2023-03-01T02:00:38;1.48;;;1.35;;
50104;SDS011;47690;39.202;-77.198;2023-03-01T02:03:33;1.45;;;1.38;;
50104;SDS011;47690;39.202;-77.198;2023-03-01T02:06:13;1.50;;;1.40;;
50104;SDS011;47690;39.202;-77.198;2023-03-01T02:12:18;1.45;;;1.35;;
50104;SDS011;47690;39.202;-77.198;2023-03-01T02:19:28;1.63;;;1.52;;
50104;SDS011;47690;39.202;-77.198;2023-03-01T02:22:25;1.25;;;1.20;;
50104;SDS011;47690;39.202;-77.198;2023-03-01T02:26:53;1.50;;;1.40;;
50104;SDS011;47690;39.202;-77.198;2023-03-01T02:29:45;1.40;;;1.30;;
50104;SDS011;47690;39.202;-77.198;2023-03-01T02:32:45;1.50;;;1.40;;
50104;SDS011;47690;39.202;-77.198;2023-03-01T02:35:40;1.45;;;1.40;;
50104;SDS011;47690;39.202;-77.198;2023-03-01T02:41:56;0.98;;;0.98;;
50104;SDS011;47690;39.202;-77.198;2023-03-01T02:44:40;1.50;;;1.40;;
50104;SDS011;47690;39.202;-77.198;2023-03-01T02:47:11;1.60;;;1.50;;
50104;SDS011;47690;39.202;-77.198;2023-03-01T02:49:45;1.85;;;1.70;;
50104;SDS011;47690;39.202;-77.198;2023-03-01T02:56:12;1.67;;;1.58;;
50104;SDS011;47690;39.202;-77.198;2023-03-01T02:58:50;1.65;;;1.55;;
50104;SDS011;47690;39.202;-77.198;2023-03-01T03:01:38;1.70;;;1.60;;
50104;SDS011;47690;39.202;-77.198;2023-03-01T03:04:20;1.67;;;1.58;;
50104;SDS011;47690;39.202;-77.198;2023-03-01T03:06:54;1.55;;;1.45;;
50104;SDS011;47690;39.202;-77.198;2023-03-01T03:09:52;1.65;;;1.55;;
50104;SDS011;47690;39.202;-77.198;2023-03-01T03:12:54;1.67;;;1.52;;
50104;SDS011;47690;39.202;-77.198;2023-03-01T03:15:41;2.00;;;1.80;;
50104;SDS011;47690;39.202;-77.198;2023-03-01T03:18:26;1.77;;;1.67;;
50104;SDS011;47690;39.202;-77.198;2023-03-01T03:21:21;1.58;;;1.48;;
50104;SDS011;47690;39.202;-77.198;2023-03-01T03:24:05;1.60;;;1.50;;
50104;SDS011;47690;39.202;-77.198;2023-03-01T03:26:40;1.60;;;1.50;;
50104;SDS011;47690;39.202;-77.198;2023-03-01T03:29:18;1.90;;;1.80;;
50104;SDS011;47690;39.202;-77.198;2023-03-01T03:31:53;2.30;;;1.90;;
50104;SDS011;47690;39.202;-77.198;2023-03-01T03:34:41;1.30;;;1.25;;
50104;SDS011;47690;39.202;-77.198;2023-03-01T03:37:30;2.28;;;1.92;;
50104;SDS011;47690;39.202;-77.198;2023-03-01T03:41:04;2.00;;;1.80;;
50104;SDS011;47690;39.202;-77.198;2023-03-01T03:43:53;1.90;;;1.80;;
50104;SDS011;47690;39.202;-77.198;2023-03-01T03:48:25;2.15;;;1.58;;
50104;SDS011;47690;39.202;-77.198;2023-03-01T03:52:01;1.63;;;1.52;;
50104;SDS011;47690;39.202;-77.198;2023-03-01T03:55:25;1.70;;;1.60;;
50104;SDS011;47690;39.202;-77.198;2023-03-01T03:58:54;1.52;;;1.42;;
50104;SDS011;47690;39.202;-77.198;2023-03-01T04:01:53;1.70;;;1.60;;
50104;SDS011;47690;39.202;-77.198;2023-03-01T04:05:18;1.70;;;1.60;;
50104;SDS011;47690;39.202;-77.198;2023-03-01T04:08:09;1.77;;;1.67;;
50104;SDS011;47690;39.202;-77.198;2023-03-01T04:14:53;1.60;;;1.50;;
50104;SDS011;47690;39.202;-77.198;2023-03-01T04:17:34;1.50;;;1.40;;
50104;SDS011;47690;39.202;-77.198;2023-03-01T04:20:53;1.88;;;1.63;;
50104;SDS011;47690;39.202;-77.198;2023-03-01T04:23:40;2.00;;;1.60;;
50104;SDS011;47690;39.202;-77.198;2023-03-01T04:26:15;1.60;;;1.50;;
50104;SDS011;47690;39.202;-77.198;2023-03-01T04:28:49;1.95;;;1.70;;
50104;SDS011;47690;39.202;-77.198;2023-03-01T04:31:35;2.40;;;2.00;;
50104;SDS011;47690;39.202;-77.198;2023-03-01T04:34:11;1.80;;;1.67;;
50104;SDS011;47690;39.202;-77.198;2023-03-01T04:36:48;2.50;;;1.63;;
50104;SDS011;47690;39.202;-77.198;2023-03-01T04:39:32;1.75;;;1.63;;
50104;SDS011;47690;39.202;-77.198;2023-03-01T04:42:06;1.80;;;1.70;;
50104;SDS011;47690;39.202;-77.198;2023-03-01T04:44:40;1.90;;;1.70;;
50104;SDS011;47690;39.202;-77.198;2023-03-01T04:47:10;1.60;;;1.50;;
50104;SDS011;47690;39.202;-77.198;2023-03-01T04:49:46;2.38;;;1.80;;
50104;SDS011;47690;39.202;-77.198;2023-03-01T04:52:32;1.75;;;1.65;;
50104;SDS011;47690;39.202;-77.198;2023-03-01T04:55:12;1.90;;;1.80;;
50104;SDS011;47690;39.202;-77.198;2023-03-01T04:57:46;2.42;;;1.80;;
50104;SDS011;47690;39.202;-77.198;2023-03-01T05:00:37;2.05;;;1.80;;
50104;SDS011;47690;39.202;-77.198;2023-03-01T05:03:10;2.05;;;1.80;;
50104;SDS011;47690;39.202;-77.198;2023-03-01T05:05:53;2.22;;;1.90;;
50104;SDS011;47690;39.202;-77.198;2023-03-01T05:08:33;1.92;;;1.73;;
50104;SDS011;47690;39.202;-77.198;2023-03-01T05:11:09;2.63;;;1.90;;
50104;SDS011;47690;39.202;-77.198;2023-03-01T05:13:50;2.15;;;1.90;;
50104;SDS011;47690;39.202;-77.198;2023-03-01T05:16:41;2.53;;;2.13;;
50104;SDS011;47690;39.202;-77.198;2023-03-01T05:19:14;2.30;;;2.10;;
50104;SDS011;47690;39.202;-77.198;2023-03-01T05:25:05;2.10;;;1.88;;
50104;SDS011;47690;39.202;-77.198;2023-03-01T05:27:38;2.55;;;2.17;;
50104;SDS011;47690;39.202;-77.198;2023-03-01T05:30:12;2.63;;;2.20;;
50104;SDS011;47690;39.202;-77.198;2023-03-01T05:32:54;2.83;;;2.30;;
50104;SDS011;47690;39.202;-77.198;2023-03-01T05:35:49;3.00;;;2.28;;
50104;SDS011;47690;39.202;-77.198;2023-03-01T05:38:49;2.20;;;2.00;;
50104;SDS011;47690;39.202;-77.198;2023-03-01T05:41:37;1.90;;;1.70;;
50104;SDS011;47690;39.202;-77.198;2023-03-01T05:46:45;1.77;;;1.67;;
50104;SDS011;47690;39.202;-77.198;2023-03-01T05:49:18;1.77;;;1.67;;
50104;SDS011;47690;39.202;-77.198;2023-03-01T05:51:53;1.80;;;1.70;;
50104;SDS011;47690;39.202;-77.198;2023-03-01T05:54:33;1.70;;;1.60;;
50104;SDS011;47690;39.202;-77.198;2023-03-01T05:57:04;1.88;;;1.77;;
50104;SDS011;47690;39.202;-77.198;2023-03-01T05:59:37;1.75;;;1.65;;
50104;SDS011;47690;39.202;-77.198;2023-03-01T06:02:12;1.63;;;1.52;;
50104;SDS011;47690;39.202;-77.198;2023-03-01T06:04:49;1.90;;;1.80;;
50104;SDS011;47690;39.202;-77.198;2023-03-01T06:07:37;1.70;;;1.60;;
50104;SDS011;47690;39.202;-77.198;2023-03-01T06:10:14;1.80;;;1.70;;
50104;SDS011;47690;39.202;-77.198;2023-03-01T06:13:01;1.73;;;1.63;;
50104;SDS011;47690;39.202;-77.198;2023-03-01T06:15:34;1.80;;;1.70;;
50104;SDS011;47690;39.202;-77.198;2023-03-01T06:18:08;1.98;;;1.77;;
50104;SDS011;47690;39.202;-77.198;2023-03-01T06:20:51;1.83;;;1.70;;
50104;SDS011;47690;39.202;-77.198;2023-03-01T06:23:33;1.70;;;1.60;;
50104;SDS011;47690;39.202;-77.198;2023-03-01T06:26:08;1.75;;;1.65;;
50104;SDS011;47690;39.202;-77.198;2023-03-01T06:28:48;1.80;;;1.70;;
50104;SDS011;47690;39.202;-77.198;2023-03-01T06:34:49;1.83;;;1.73;;
50104;SDS011;47690;39.202;-77.198;2023-03-01T06:37:32;2.05;;;1.63;;
50104;SDS011;47690;39.202;-77.198;2023-03-01T06:40:09;2.10;;;1.90;;
50104;SDS011;47690;39.202;-77.198;2023-03-01T06:42:47;1.63;;;1.52;;
50104;SDS011;47690;39.202;-77.198;2023-03-01T06:45:20;1.40;;;1.40;;
50104;SDS011;47690;39.202;-77.198;2023-03-01T06:47:52;2.00;;;1.75;;
50104;SDS011;47690;39.202;-77.198;2023-03-01T06:50:30;1.67;;;1.58;;
50104;SDS011;47690;39.202;-77.198;2023-03-01T06:53:06;1.80;;;1.70;;
50104;SDS011;47690;39.202;-77.198;2023-03-01T06:55:53;1.80;;;1.70;;
50104;SDS011;47690;39.202;-77.198;2023-03-01T06:58:32;1.80;;;1.70;;
50104;SDS011;47690;39.202;-77.198;2023-03-01T07:01:09;2.08;;;1.75;;
50104;SDS011;47690;39.202;-77.198;2023-03-01T07:03:45;1.75;;;1.60;;
50104;SDS011;47690;39.202;-77.198;2023-03-01T07:06:19;1.85;;;1.75;;
50104;SDS011;47690;39.202;-77.198;2023-03-01T07:08:50;2.00;;;1.80;;
50104;SDS011;47690;39.202;-77.198;2023-03-01T07:11:30;1.70;;;1.60;;
50104;SDS011;47690;39.202;-77.198;2023-03-01T07:14:05;2.10;;;1.60;;
50104;SDS011;47690;39.202;-77.198;2023-03-01T07:16:37;1.83;;;1.73;;
50104;SDS011;47690;39.202;-77.198;2023-03-01T07:19:09;1.70;;;1.60;;
50104;SDS011;47690;39.202;-77.198;2023-03-01T07:21:40;2.72;;;1.60;;
50104;SDS011;47690;39.202;-77.198;2023-03-01T07:24:14;1.75;;;1.65;;
50104;SDS011;47690;39.202;-77.198;2023-03-01T07:26:50;2.15;;;1.70;;
50104;SDS011;47690;39.202;-77.198;2023-03-01T07:29:29;1.33;;;1.33;;
50104;SDS011;47690;39.202;-77.198;2023-03-01T07:32:09;1.63;;;1.52;;
50104;SDS011;47690;39.202;-77.198;2023-03-01T07:34:44;1.80;;;1.70;;
50104;SDS011;47690;39.202;-77.198;2023-03-01T07:37:21;2.03;;;1.83;;
50104;SDS011;47690;39.202;-77.198;2023-03-01T07:39:54;1.63;;;1.52;;
50104;SDS011;47690;39.202;-77.198;2023-03-01T07:42:44;1.65;;;1.55;;
50104;SDS011;47690;39.202;-77.198;2023-03-01T07:45:17;1.90;;;1.70;;
50104;SDS011;47690;39.202;-77.198;2023-03-01T07:50:33;2.00;;;1.80;;
50104;SDS011;47690;39.202;-77.198;2023-03-01T07:53:09;3.60;;;2.47;;
50104;SDS011;47690;39.202;-77.198;2023-03-01T07:55:44;5.65;;;3.53;;
50104;SDS011;47690;39.202;-77.198;2023-03-01T07:58:20;5.63;;;3.70;;
50104;SDS011;47690;39.202;-77.198;2023-03-01T08:00:52;4.32;;;3.40;;
50104;SDS011;47690;39.202;-77.198;2023-03-01T08:03:38;4.90;;;3.53;;
50104;SDS011;47690;39.202;-77.198;2023-03-01T08:06:18;5.93;;;3.33;;
50104;SDS011;47690;39.202;-77.198;2023-03-01T08:08:50;2.83;;;2.35;;
50104;SDS011;47690;39.202;-77.198;2023-03-01T08:11:32;2.92;;;2.22;;
50104;SDS011;47690;39.202;-77.198;2023-03-01T08:14:02;3.53;;;2.33;;
50104;SDS011;47690;39.202;-77.198;2023-03-01T08:16:37;3.67;;;2.45;;
50104;SDS011;47690;39.202;-77.198;2023-03-01T08:19:10;2.42;;;2.15;;
50104;SDS011;47690;39.202;-77.198;2023-03-01T08:21:49;2.70;;;2.20;;
50104;SDS011;47690;39.202;-77.198;2023-03-01T08:24:32;2.40;;;2.20;;
50104;SDS011;47690;39.202;-77.198;2023-03-01T08:27:04;2.30;;;2.05;;
50104;SDS011;47690;39.202;-77.198;2023-03-01T08:29:37;2.70;;;2.20;;
50104;SDS011;47690;39.202;-77.198;2023-03-01T08:32:18;2.20;;;1.90;;
50104;SDS011;47690;39.202;-77.198;2023-03-01T08:35:00;2.10;;;1.90;;
50104;SDS011;47690;39.202;-77.198;2023-03-01T08:37:31;2.00;;;1.85;;
50104;SDS011;47690;39.202;-77.198;2023-03-01T08:40:04;1.90;;;1.80;;
50104;SDS011;47690;39.202;-77.198;2023-03-01T08:42:40;1.80;;;1.70;;
50104;SDS011;47690;39.202;-77.198;2023-03-01T08:45:16;1.80;;;1.70;;
50104;SDS011;47690;39.202;-77.198;2023-03-01T08:48:04;2.55;;;2.00;;
50104;SDS011;47690;39.202;-77.198;2023-03-01T08:50:37;2.13;;;1.92;;
50104;SDS011;47690;39.202;-77.198;2023-03-01T08:53:11;2.08;;;1.88;;
50104;SDS011;47690;39.202;-77.198;2023-03-01T08:55:53;2.03;;;1.83;;
50104;SDS011;47690;39.202;-77.198;2023-03-01T08:58:34;1.70;;;1.58;;
50104;SDS011;47690;39.202;-77.198;2023-03-01T09:01:08;2.00;;;1.80;;
50104;SDS011;47690;39.202;-77.198;2023-03-01T09:03:44;1.90;;;1.80;;
50104;SDS011;47690;39.202;-77.198;2023-03-01T09:06:17;2.30;;;2.10;;
50104;SDS011;47690;39.202;-77.198;2023-03-01T09:09:04;2.20;;;2.00;;
50104;SDS011;47690;39.202;-77.198;2023-03-01T09:11:38;2.25;;;1.95;;
50104;SDS011;47690;39.202;-77.198;2023-03-01T09:14:10;2.78;;;2.28;;
50104;SDS011;47690;39.202;-77.198;2023-03-01T09:16:46;2.35;;;2.15;;
50104;SDS011;47690;39.202;-77.198;2023-03-01T09:19:19;2.25;;;2.05;;
50104;SDS011;47690;39.202;-77.198;2023-03-01T09:21:50;2.13;;;1.92;;
50104;SDS011;47690;39.202;-77.198;2023-03-01T09:24:22;2.03;;;1.83;;
50104;SDS011;47690;39.202;-77.198;2023-03-01T09:26:58;2.13;;;1.92;;
50104;SDS011;47690;39.202;-77.198;2023-03-01T09:29:35;2.40;;;2.20;;
50104;SDS011;47690;39.202;-77.198;2023-03-01T09:32:07;2.00;;;1.80;;
50104;SDS011;47690;39.202;-77.198;2023-03-01T09:34:39;1.90;;;1.80;;
50104;SDS011;47690;39.202;-77.198;2023-03-01T09:37:31;2.20;;;2.00;;
50104;SDS011;47690;39.202;-77.198;2023-03-01T09:40:11;2.10;;;1.90;;
50104;SDS011;47690;39.202;-77.198;2023-03-01T09:45:39;2.10;;;1.90;;
50104;SDS011;47690;39.202;-77.198;2023-03-01T09:48:21;1.80;;;1.70;;
50104;SDS011;47690;39.202;-77.198;2023-03-01T09:51:01;3.17;;;1.90;;
50104;SDS011;47690;39.202;-77.198;2023-03-01T09:53:38;1.95;;;1.83;;
50104;SDS011;47690;39.202;-77.198;2023-03-01T09:56:16;2.10;;;1.90;;
50104;SDS011;47690;39.202;-77.198;2023-03-01T10:01:58;2.13;;;1.92;;
50104;SDS011;47690;39.202;-77.198;2023-03-01T10:04:46;2.15;;;1.95;;
50104;SDS011;47690;39.202;-77.198;2023-03-01T10:10:33;1.92;;;1.83;;
50104;SDS011;47690;39.202;-77.198;2023-03-01T10:13:26;2.15;;;1.95;;
50104;SDS011;47690;39.202;-77.198;2023-03-01T10:16:13;2.10;;;1.90;;
50104;SDS011;47690;39.202;-77.198;2023-03-01T10:18:54;1.83;;;1.67;;
50104;SDS011;47690;39.202;-77.198;2023-03-01T10:21:34;2.00;;;1.80;;
50104;SDS011;47690;39.202;-77.198;2023-03-01T10:24:18;1.90;;;1.80;;
50104;SDS011;47690;39.202;-77.198;2023-03-01T10:27:01;1.90;;;1.75;;
50104;SDS011;47690;39.202;-77.198;2023-03-01T10:29:45;2.80;;;1.65;;
50104;SDS011;47690;39.202;-77.198;2023-03-01T10:32:20;2.10;;;1.90;;
50104;SDS011;47690;39.202;-77.198;2023-03-01T10:35:00;1.80;;;1.70;;
50104;SDS011;47690;39.202;-77.198;2023-03-01T10:37:33;1.77;;;1.67;;
50104;SDS011;47690;39.202;-77.198;2023-03-01T10:40:16;2.20;;;2.00;;
50104;SDS011;47690;39.202;-77.198;2023-03-01T10:42:49;2.03;;;1.83;;
50104;SDS011;47690;39.202;-77.198;2023-03-01T10:48:11;1.88;;;1.70;;
50104;SDS011;47690;39.202;-77.198;2023-03-01T10:50:46;1.70;;;1.60;;
50104;SDS011;47690;39.202;-77.198;2023-03-01T10:53:42;2.08;;;1.90;;
50104;SDS011;47690;39.202;-77.198;2023-03-01T10:56:21;2.00;;;1.80;;
50104;SDS011;47690;39.202;-77.198;2023-03-01T10:59:02;2.22;;;2.00;;
50104;SDS011;47690;39.202;-77.198;2023-03-01T11:01:35;2.17;;;1.88;;
50104;SDS011;47690;39.202;-77.198;2023-03-01T11:06:38;2.20;;;2.00;;
50104;SDS011;47690;39.202;-77.198;2023-03-01T11:09:22;1.80;;;1.70;;
50104;SDS011;47690;39.202;-77.198;2023-03-01T11:12:14;1.92;;;1.83;;
50104;SDS011;47690;39.202;-77.198;2023-03-01T11:14:47;2.40;;;2.00;;
50104;SDS011;47690;39.202;-77.198;2023-03-01T11:17:30;1.80;;;1.70;;
50104;SDS011;47690;39.202;-77.198;2023-03-01T11:20:34;1.90;;;1.80;;
50104;SDS011;47690;39.202;-77.198;2023-03-01T11:23:14;1.70;;;1.60;;
50104;SDS011;47690;39.202;-77.198;2023-03-01T11:25:56;1.90;;;1.80;;
50104;SDS011;47690;39.202;-77.198;2023-03-01T11:28:40;2.08;;;1.90;;
50104;SDS011;47690;39.202;-77.198;2023-03-01T11:31:16;1.92;;;1.83;;
50104;SDS011;47690;39.202;-77.198;2023-03-01T11:34:11;1.80;;;1.70;;
50104;SDS011;47690;39.202;-77.198;2023-03-01T11:36:58;1.80;;;1.70;;
50104;SDS011;47690;39.202;-77.198;2023-03-01T11:39:39;2.00;;;1.90;;
50104;SDS011;47690;39.202;-77.198;2023-03-01T11:42:19;1.88;;;1.77;;
50104;SDS011;47690;39.202;-77.198;2023-03-01T11:45:09;1.85;;;1.75;;
50104;SDS011;47690;39.202;-77.198;2023-03-01T11:47:49;2.03;;;1.90;;
50104;SDS011;47690;39.202;-77.198;2023-03-01T11:53:33;2.10;;;1.90;;
50104;SDS011;47690;39.202;-77.198;2023-03-01T12:12:58;1.90;;;1.80;;
50104;SDS011;47690;39.202;-77.198;2023-03-01T12:34:19;2.22;;;1.98;;
50104;SDS011;47690;39.202;-77.198;2023-03-01T12:43:07;2.75;;;2.03;;
50104;SDS011;47690;39.202;-77.198;2023-03-01T12:46:09;2.30;;;2.10;;
50104;SDS011;47690;39.202;-77.198;2023-03-01T12:49:08;3.80;;;2.15;;
50104;SDS011;47690;39.202;-77.198;2023-03-01T12:51:44;3.83;;;2.17;;
50104;SDS011;47690;39.202;-77.198;2023-03-01T12:54:30;2.33;;;2.13;;
50104;SDS011;47690;39.202;-77.198;2023-03-01T12:57:11;2.22;;;2.03;;
50104;SDS011;47690;39.202;-77.198;2023-03-01T13:06:19;2.78;;;2.08;;
50104;SDS011;47690;39.202;-77.198;2023-03-01T13:09:23;2.42;;;2.20;;
50104;SDS011;47690;39.202;-77.198;2023-03-01T13:28:39;2.92;;;2.50;;
50104;SDS011;47690;39.202;-77.198;2023-03-01T13:39:03;3.03;;;2.55;;
50104;SDS011;47690;39.202;-77.198;2023-03-01T13:41:49;3.35;;;2.55;;
50104;SDS011;47690;39.202;-77.198;2023-03-01T13:47:20;2.95;;;2.67;;
50104;SDS011;47690;39.202;-77.198;2023-03-01T13:49:56;3.42;;;3.03;;
50104;SDS011;47690;39.202;-77.198;2023-03-01T13:52:40;4.75;;;3.63;;
50104;SDS011;47690;39.202;-77.198;2023-03-01T13:55:18;3.85;;;3.22;;
50104;SDS011;47690;39.202;-77.198;2023-03-01T13:57:57;4.07;;;3.33;;
50104;SDS011;47690;39.202;-77.198;2023-03-01T14:00:37;5.28;;;3.45;;
50104;SDS011;47690;39.202;-77.198;2023-03-01T14:09:17;3.55;;;3.22;;
50104;SDS011;47690;39.202;-77.198;2023-03-01T14:14:53;4.00;;;3.20;;
50104;SDS011;47690;39.202;-77.198;2023-03-01T14:20:14;4.05;;;3.20;;
50104;SDS011;47690;39.202;-77.198;2023-03-01T14:22:59;3.85;;;3.40;;
50104;SDS011;47690;39.202;-77.198;2023-03-01T14:25:45;3.95;;;3.55;;
50104;SDS011;47690;39.202;-77.198;2023-03-01T14:32:19;4.00;;;3.38;;
50104;SDS011;47690;39.202;-77.198;2023-03-01T14:35:18;4.70;;;4.05;;
50104;SDS011;47690;39.202;-77.198;2023-03-01T14:38:01;4.68;;;3.88;;
50104;SDS011;47690;39.202;-77.198;2023-03-01T14:40:36;5.05;;;3.75;;
50104;SDS011;47690;39.202;-77.198;2023-03-01T14:43:10;4.85;;;4.00;;
50104;SDS011;47690;39.202;-77.198;2023-03-01T14:45:49;4.35;;;3.47;;
50104;SDS011;47690;39.202;-77.198;2023-03-01T14:48:40;4.43;;;3.70;;
50104;SDS011;47690;39.202;-77.198;2023-03-01T14:51:12;4.28;;;3.67;;
50104;SDS011;47690;39.202;-77.198;2023-03-01T14:53:45;4.88;;;4.10;;
50104;SDS011;47690;39.202;-77.198;2023-03-01T14:56:20;5.35;;;4.07;;
50104;SDS011;47690;39.202;-77.198;2023-03-01T15:02:08;4.93;;;3.78;;
50104;SDS011;47690;39.202;-77.198;2023-03-01T15:05:10;4.70;;;3.63;;
50104;SDS011;47690;39.202;-77.198;2023-03-01T15:08:11;4.25;;;3.47;;
50104;SDS011;47690;39.202;-77.198;2023-03-01T15:15:00;4.15;;;3.45;;
50104;SDS011;47690;39.202;-77.198;2023-03-01T15:17:52;3.92;;;3.40;;
50104;SDS011;47690;39.202;-77.198;2023-03-01T15:20:41;4.07;;;3.50;;
50104;SDS011;47690;39.202;-77.198;2023-03-01T15:26:06;4.53;;;4.00;;
50104;SDS011;47690;39.202;-77.198;2023-03-01T15:28:43;4.60;;;3.90;;
50104;SDS011;47690;39.202;-77.198;2023-03-01T15:32:20;4.40;;;3.70;;
50104;SDS011;47690;39.202;-77.198;2023-03-01T15:35:39;4.82;;;3.58;;
50104;SDS011;47690;39.202;-77.198;2023-03-01T15:38:24;5.35;;;4.13;;
50104;SDS011;47690;39.202;-77.198;2023-03-01T15:41:49;4.50;;;3.78;;
50104;SDS011;47690;39.202;-77.198;2023-03-01T15:44:35;5.63;;;4.43;;
50104;SDS011;47690;39.202;-77.198;2023-03-01T15:47:23;5.70;;;4.35;;
50104;SDS011;47690;39.202;-77.198;2023-03-01T15:50:05;4.63;;;4.18;;
50104;SDS011;47690;39.202;-77.198;2023-03-01T15:52:47;6.50;;;4.45;;
50104;SDS011;47690;39.202;-77.198;2023-03-01T15:55:25;5.45;;;4.80;;
50104;SDS011;47690;39.202;-77.198;2023-03-01T15:58:12;5.55;;;4.47;;
50104;SDS011;47690;39.202;-77.198;2023-03-01T16:01:01;5.05;;;4.32;;
50104;SDS011;47690;39.202;-77.198;2023-03-01T16:03:33;5.00;;;4.50;;
50104;SDS011;47690;39.202;-77.198;2023-03-01T16:06:05;5.88;;;4.40;;
50104;SDS011;47690;39.202;-77.198;2023-03-01T16:08:39;5.88;;;4.88;;
50104;SDS011;47690;39.202;-77.198;2023-03-01T16:11:32;5.25;;;4.35;;
50104;SDS011;47690;39.202;-77.198;2023-03-01T16:14:08;5.25;;;4.50;;
50104;SDS011;47690;39.202;-77.198;2023-03-01T16:16:41;5.35;;;4.43;;
50104;SDS011;47690;39.202;-77.198;2023-03-01T16:19:16;4.40;;;3.60;;
50104;SDS011;47690;39.202;-77.198;2023-03-01T16:22:00;4.97;;;3.90;;
50104;SDS011;47690;39.202;-77.198;2023-03-01T16:25:05;4.55;;;3.80;;
50104;SDS011;47690;39.202;-77.198;2023-03-01T16:28:05;4.45;;;3.85;;
50104;SDS011;47690;39.202;-77.198;2023-03-01T16:31:24;4.70;;;3.90;;
50104;SDS011;47690;39.202;-77.198;2023-03-01T16:34:06;4.82;;;3.88;;
50104;SDS011;47690;39.202;-77.198;2023-03-01T16:36:40;4.43;;;3.80;;
50104;SDS011;47690;39.202;-77.198;2023-03-01T16:39:21;5.07;;;3.92;;
50104;SDS011;47690;39.202;-77.198;2023-03-01T16:43:45;4.18;;;3.65;;
50104;SDS011;47690;39.202;-77.198;2023-03-01T16:46:27;5.20;;;3.90;;
50104;SDS011;47690;39.202;-77.198;2023-03-01T16:49:17;4.55;;;3.80;;
50104;SDS011;47690;39.202;-77.198;2023-03-01T16:52:02;4.45;;;3.55;;
50104;SDS011;47690;39.202;-77.198;2023-03-01T16:55:39;3.90;;;3.50;;
50104;SDS011;47690;39.202;-77.198;2023-03-01T16:58:34;4.13;;;3.35;;
50104;SDS011;47690;39.202;-77.198;2023-03-01T17:01:37;3.65;;;3.33;;
50104;SDS011;47690;39.202;-77.198;2023-03-01T17:04:53;4.40;;;3.65;;
50104;SDS011;47690;39.202;-77.198;2023-03-01T17:07:38;3.95;;;3.50;;
50104;SDS011;47690;39.202;-77.198;2023-03-01T17:10:16;4.50;;;3.55;;
50104;SDS011;47690;39.202;-77.198;2023-03-01T17:12:49;5.47;;;3.92;;
50104;SDS011;47690;39.202;-77.198;2023-03-01T17:15:58;3.60;;;3.20;;
50104;SDS011;47690;39.202;-77.198;2023-03-01T17:19:14;4.75;;;3.42;;
50104;SDS011;47690;39.202;-77.198;2023-03-01T17:22:18;5.05;;;3.50;;
50104;SDS011;47690;39.202;-77.198;2023-03-01T17:24:52;4.43;;;3.92;;
50104;SDS011;47690;39.202;-77.198;2023-03-01T17:27:33;4.55;;;3.75;;
50104;SDS011;47690;39.202;-77.198;2023-03-01T17:30:12;3.88;;;3.47;;
50104;SDS011;47690;39.202;-77.198;2023-03-01T17:32:44;3.88;;;3.35;;
50104;SDS011;47690;39.202;-77.198;2023-03-01T17:37:53;2.95;;;2.63;;
50104;SDS011;47690;39.202;-77.198;2023-03-01T17:40:33;3.05;;;2.75;;
50104;SDS011;47690;39.202;-77.198;2023-03-01T17:43:17;2.90;;;2.60;;
50104;SDS011;47690;39.202;-77.198;2023-03-01T17:46:03;3.20;;;2.90;;
50104;SDS011;47690;39.202;-77.198;2023-03-01T17:48:44;4.45;;;2.97;;
50104;SDS011;47690;39.202;-77.198;2023-03-01T17:51:16;2.78;;;2.50;;
50104;SDS011;47690;39.202;-77.198;2023-03-01T17:53:49;3.88;;;2.72;;
50104;SDS011;47690;39.202;-77.198;2023-03-01T17:56:18;3.15;;;2.75;;
50104;SDS011;47690;39.202;-77.198;2023-03-01T17:59:00;3.00;;;2.70;;
50104;SDS011;47690;39.202;-77.198;2023-03-01T18:02:20;2.50;;;2.30;;
50104;SDS011;47690;39.202;-77.198;2023-03-01T18:04:50;2.80;;;2.50;;
50104;SDS011;47690;39.202;-77.198;2023-03-01T18:07:53;3.10;;;2.80;;
50104;SDS011;47690;39.202;-77.198;2023-03-01T18:12:14;2.38;;;2.17;;
50104;SDS011;47690;39.202;-77.198;2023-03-01T18:14:50;2.55;;;2.30;;
50104;SDS011;47690;39.202;-77.198;2023-03-01T18:17:45;2.67;;;2.20;;
50104;SDS011;47690;39.202;-77.198;2023-03-01T18:20:44;2.78;;;2.42;;
50104;SDS011;47690;39.202;-77.198;2023-03-01T18:23:21;2.80;;;2.50;;
50104;SDS011;47690;39.202;-77.198;2023-03-01T18:26:10;2.63;;;2.42;;
50104;SDS011;47690;39.202;-77.198;2023-03-01T18:28:50;2.83;;;2.38;;
50104;SDS011;47690;39.202;-77.198;2023-03-01T18:31:33;2.67;;;2.47;;
50104;SDS011;47690;39.202;-77.198;2023-03-01T18:34:16;2.80;;;2.40;;
50104;SDS011;47690;39.202;-77.198;2023-03-01T18:36:48;2.60;;;2.17;;